All City Stadium (Denver), Colorado
Current Conditions -  °F | °C
As of 6:53 AM on Thursday 23 Oct 2014 (Local Time) from KAPA Reporting Station
Few Clouds Few Clouds  
Wind Chill: 44°   Ceiling: Unl
Heat Index: 44°   Visibility: 10mi
Dew Point: 32°   Wind: 0mph
Humidity: 63%   Direction: NA
Pressure: 30.19"   Gusts: NA
Location:  39.69109°N, 104.9663°W
Report Text: KAPA 231253Z 00000KT 10SM FEW120 FEW150 07/00 A3019 RMK AO2 SLP201 ACSL VC SW-W T00670000
Loading
Personal Weather Stations






























Interactive Weather Map
Tropical Storm Tracking
New forecast layout! Learn more

10-Day Weather Forecast

Advertisements
Track Severe Weather on mobile